createdAt,value
2022-08-28T00:03:09.568Z,5.53
2022-08-28T00:08:15.087Z,5.30
2022-08-28T00:13:22.116Z,5.90
2022-08-28T00:18:26.603Z,5.53
2022-08-28T00:23:42.460Z,5.32
2022-08-28T00:28:45.883Z,5.45
2022-08-28T00:33:50.964Z,5.45
2022-08-28T00:38:53.759Z,4.80
2022-08-28T00:44:28.200Z,4.35
2022-08-28T00:49:36.088Z,4.00
2022-08-28T00:55:06.077Z,3.42
2022-08-28T01:00:16.598Z,3.63
2022-08-28T01:05:20.530Z,3.50
2022-08-28T01:10:26.683Z,3.05
2022-08-28T01:15:33.807Z,3.40
2022-08-28T01:20:42.853Z,3.20
2022-08-28T01:25:45.836Z,3.00
2022-08-28T01:30:49.613Z,2.90
2022-08-28T01:35:53.959Z,3.03
2022-08-28T01:40:58.248Z,3.13
2022-08-28T01:46:05.906Z,3.55
2022-08-28T01:51:10.703Z,3.35
2022-08-28T01:56:16.212Z,3.50
2022-08-28T02:01:21.925Z,3.00
2022-08-28T02:06:25.816Z,3.45
2022-08-28T02:11:32.950Z,3.72
2022-08-28T02:16:35.951Z,3.35
2022-08-28T02:21:38.938Z,3.00
2022-08-28T02:26:41.732Z,3.00
2022-08-28T02:31:44.484Z,3.03
2022-08-28T02:36:47.968Z,3.50
2022-08-28T02:41:50.995Z,2.80
2022-08-28T02:46:54.039Z,3.47
2022-08-28T02:51:58.930Z,3.15
2022-08-28T02:57:01.922Z,3.20
2022-08-28T03:02:07.321Z,2.80
2022-08-28T03:07:13.686Z,2.75
2022-08-28T03:12:17.173Z,3.30
2022-08-28T03:17:22.169Z,3.42
2022-08-28T03:22:43.731Z,3.90
2022-08-28T03:27:46.788Z,3.20
2022-08-28T03:32:50.462Z,3.53
2022-08-28T03:37:54.026Z,3.70
2022-08-28T03:42:57.105Z,3.60
2022-08-28T03:47:59.996Z,3.80
2022-08-28T03:53:02.968Z,4.20
2022-08-28T03:58:05.913Z,4.97
2022-08-28T04:03:09.358Z,3.60
2022-08-28T04:08:16.098Z,3.42
2022-08-28T04:13:21.057Z,3.60
2022-08-28T04:18:24.113Z,3.85
2022-08-28T04:23:28.734Z,3.60
2022-08-28T04:28:32.735Z,4.50
2022-08-28T04:33:37.045Z,4.28
2022-08-28T04:38:43.913Z,4.07
2022-08-28T04:43:47.666Z,4.07
2022-08-28T04:48:50.639Z,4.65
2022-08-28T04:53:53.677Z,5.07
2022-08-28T04:58:56.717Z,4.00
2022-08-28T05:04:04.034Z,4.20
2022-08-28T05:09:07.051Z,4.07
2022-08-28T05:14:15.230Z,4.35
2022-08-28T05:19:21.066Z,3.40
2022-08-28T05:24:23.933Z,3.35
2022-08-28T05:29:26.769Z,3.90
2022-08-28T05:34:29.659Z,2.83
2022-08-28T05:39:33.022Z,3.00
2022-08-28T05:44:35.971Z,2.97
2022-08-28T05:49:39.068Z,2.88
2022-08-28T05:54:43.198Z,3.08
2022-08-28T05:59:46.102Z,3.20
2022-08-28T06:04:49.820Z,3.20
2022-08-28T06:09:52.620Z,3.17
2022-08-28T06:14:55.514Z,3.17
2022-08-28T06:19:59.752Z,2.58
2022-08-28T06:25:06.377Z,2.80
2022-08-28T06:30:11.746Z,2.72
2022-08-28T06:35:16.076Z,2.88
2022-08-28T06:40:18.931Z,2.97
2022-08-28T06:45:21.753Z,2.60
2022-08-28T06:50:24.646Z,2.33
2022-08-28T06:55:27.480Z,3.35
2022-08-28T07:00:33.532Z,2.65
2022-08-28T07:05:36.312Z,2.38
2022-08-28T07:10:39.082Z,2.47
2022-08-28T07:15:42.122Z,2.63
2022-08-28T07:20:45.996Z,2.97
2022-08-28T07:25:48.840Z,2.95
2022-08-28T07:31:22.255Z,3.05
2022-08-28T07:36:29.432Z,2.53
2022-08-28T07:41:39.290Z,2.85
2022-08-28T07:46:42.550Z,2.50
2022-08-28T07:51:46.729Z,2.90
2022-08-28T07:56:50.265Z,2.65
2022-08-28T08:01:53.422Z,2.38
2022-08-28T08:06:58.239Z,2.67
2022-08-28T08:12:01.241Z,2.60
2022-08-28T08:17:07.337Z,2.50
2022-08-28T08:22:10.435Z,2.63
2022-08-28T08:27:13.448Z,3.20
2022-08-28T08:32:16.418Z,2.75
2022-08-28T08:37:19.527Z,2.40
2022-08-28T08:42:30.519Z,2.60
2022-08-28T08:48:00.538Z,2.38
2022-08-28T08:58:41.278Z,2.78
2022-08-28T09:04:22.713Z,2.58
2022-08-28T09:09:37.263Z,2.50
2022-08-28T09:14:58.531Z,2.47
2022-08-28T09:20:01.534Z,7.03
2022-08-28T09:25:05.929Z,3.50
2022-08-28T09:30:12.034Z,2.67
2022-08-28T09:35:29.273Z,2.95
2022-08-28T09:40:51.449Z,2.33
2022-08-28T09:46:31.056Z,2.55
2022-08-28T09:51:38.821Z,2.65
2022-08-28T09:56:44.812Z,2.67
2022-08-28T10:02:11.575Z,2.20
2022-08-28T10:07:32.370Z,2.42
2022-08-28T10:13:09.643Z,2.13
2022-08-28T10:18:30.666Z,2.60
2022-08-28T10:24:24.727Z,2.80
2022-08-28T10:29:48.192Z,3.25
2022-08-28T10:35:14.035Z,2.33
2022-08-28T10:40:42.163Z,2.25
2022-08-28T10:45:45.635Z,2.30
2022-08-28T10:50:56.156Z,2.35
2022-08-28T10:56:07.444Z,2.50
2022-08-28T11:01:28.608Z,2.40
2022-08-28T11:06:48.118Z,2.70
2022-08-28T11:12:02.504Z,3.13
2022-08-28T11:17:37.660Z,2.60
2022-08-28T11:22:53.124Z,2.28
2022-08-28T11:28:39.098Z,2.55
2022-08-28T11:33:52.553Z,2.10
2022-08-28T11:38:55.848Z,2.20
2022-08-28T11:44:11.211Z,2.47
2022-08-28T11:49:29.942Z,2.33
2022-08-28T11:55:15.820Z,2.53
2022-08-28T12:00:51.280Z,2.20
2022-08-28T12:05:58.045Z,2.20
2022-08-28T12:11:02.034Z,2.25
2022-08-28T12:16:07.678Z,2.20
2022-08-28T12:21:25.944Z,2.03
2022-08-28T12:26:47.751Z,2.20
2022-08-28T12:32:13.640Z,1.88
2022-08-28T12:37:31.292Z,2.03
2022-08-28T12:43:04.932Z,2.28
2022-08-28T12:48:24.198Z,2.00
2022-08-28T12:53:27.146Z,2.38
2022-08-28T12:58:39.526Z,2.30
2022-08-28T13:04:12.049Z,2.33
2022-08-28T13:09:22.555Z,2.33
2022-08-28T13:14:46.228Z,2.20
2022-08-28T13:20:07.466Z,2.30
2022-08-28T13:25:31.109Z,2.38
2022-08-28T13:30:36.584Z,2.92
2022-08-28T13:35:42.018Z,2.20
2022-08-28T13:41:02.677Z,2.38
2022-08-28T13:46:05.696Z,2.55
2022-08-28T13:51:20.809Z,2.75
2022-08-28T13:56:24.511Z,3.15
2022-08-28T14:01:47.634Z,2.80
2022-08-28T14:06:50.775Z,2.53
2022-08-28T14:11:55.860Z,2.50
2022-08-28T14:16:59.682Z,2.45
2022-08-28T14:22:04.163Z,2.70
2022-08-28T14:27:07.126Z,2.50
2022-08-28T14:32:10.105Z,2.42
2022-08-28T14:37:13.957Z,2.63
2022-08-28T14:42:19.409Z,2.58
2022-08-28T14:47:22.517Z,2.35
2022-08-28T14:52:26.464Z,2.20
2022-08-28T14:57:29.411Z,2.28
2022-08-28T15:02:32.084Z,2.72
2022-08-28T15:07:35.137Z,2.33
2022-08-28T15:12:40.275Z,2.63
2022-08-28T15:17:45.490Z,2.50
2022-08-28T15:22:48.507Z,2.92
2022-08-28T15:27:51.668Z,2.83
2022-08-28T15:32:54.552Z,2.40
2022-08-28T15:37:57.517Z,2.40
2022-08-28T15:43:00.581Z,2.60
2022-08-28T15:48:03.976Z,2.50
2022-08-28T15:53:07.788Z,2.60
2022-08-28T15:58:14.344Z,2.30
2022-08-28T16:03:17.511Z,2.03
2022-08-28T16:08:20.760Z,2.58
2022-08-28T16:13:23.764Z,2.80
2022-08-28T16:18:26.667Z,2.17
2022-08-28T16:23:29.420Z,2.78
2022-08-28T16:28:33.398Z,2.60
2022-08-28T16:33:37.595Z,2.40
2022-08-28T16:38:46.573Z,2.88
2022-08-28T16:43:50.719Z,2.63
2022-08-28T16:48:54.685Z,2.90
2022-08-28T16:53:58.541Z,2.47
2022-08-28T16:59:01.413Z,2.80
2022-08-28T17:04:04.292Z,2.63
2022-08-28T17:09:07.333Z,2.80
2022-08-28T17:14:12.156Z,3.38
2022-08-28T17:19:15.827Z,3.40
2022-08-28T17:24:18.893Z,2.92
2022-08-28T17:29:21.869Z,2.63
2022-08-28T17:34:29.952Z,2.65
2022-08-28T17:39:33.132Z,2.55
2022-08-28T17:44:36.606Z,2.65
2022-08-28T17:49:40.633Z,2.60
2022-08-28T17:54:45.778Z,2.20
2022-08-28T17:59:49.063Z,2.47
2022-08-28T18:04:53.970Z,2.10
2022-08-28T18:09:56.986Z,2.17
2022-08-28T18:14:59.758Z,1.83
2022-08-28T18:20:05.576Z,1.88
2022-08-28T18:25:09.316Z,1.95
2022-08-28T18:30:12.616Z,2.30
2022-08-28T18:35:15.574Z,2.35
2022-08-28T18:40:18.835Z,2.17
2022-08-28T18:45:21.663Z,2.00
2022-08-28T18:50:26.907Z,2.20
2022-08-28T18:55:32.280Z,1.90
2022-08-28T19:00:35.154Z,1.65
2022-08-28T19:05:39.539Z,1.90
2022-08-28T19:10:42.513Z,1.65
2022-08-28T19:15:52.817Z,1.80
2022-08-28T19:21:08.987Z,1.70
2022-08-28T19:26:13.222Z,1.60
2022-08-28T19:31:17.576Z,1.83
2022-08-28T19:36:22.111Z,1.70
2022-08-28T19:41:26.390Z,1.50
2022-08-28T19:46:29.918Z,1.38
2022-08-28T19:51:35.345Z,1.58
2022-08-28T19:56:39.979Z,2.38
2022-08-28T20:01:45.085Z,1.88
2022-08-28T20:06:48.199Z,2.10
2022-08-28T20:11:52.625Z,1.70
2022-08-28T20:16:55.694Z,2.15
2022-08-28T20:21:58.538Z,1.85
2022-08-28T20:27:01.366Z,2.47
2022-08-28T20:32:04.368Z,2.13
2022-08-28T20:37:07.299Z,2.50
2022-08-28T20:42:12.085Z,2.53
2022-08-28T20:47:15.196Z,2.60
2022-08-28T20:52:18.345Z,2.38
2022-08-28T20:57:22.901Z,2.65
2022-08-28T21:02:29.157Z,2.63
2022-08-28T21:07:34.182Z,2.58
2022-08-28T21:12:39.131Z,2.90
2022-08-28T21:17:42.577Z,3.45
2022-08-28T21:22:45.745Z,3.53
2022-08-28T21:27:50.584Z,3.97
2022-08-28T21:32:53.797Z,3.40
2022-08-28T21:37:56.626Z,3.20
2022-08-28T21:42:59.579Z,3.38
2022-08-28T21:48:03.321Z,3.30
2022-08-28T21:53:06.253Z,3.85
2022-08-28T21:58:09.718Z,4.07
2022-08-28T22:03:16.312Z,4.50
2022-08-28T22:08:21.567Z,4.32
2022-08-28T22:13:24.737Z,4.53
2022-08-28T22:18:34.040Z,5.00
2022-08-28T22:23:37.993Z,4.55
2022-08-28T22:28:41.216Z,5.10
2022-08-28T22:33:44.841Z,5.15
2022-08-28T22:38:53.193Z,4.68
2022-08-28T22:43:56.436Z,5.18
2022-08-28T22:48:59.536Z,4.80
2022-08-28T22:54:02.706Z,4.80
2022-08-28T22:59:05.665Z,5.18
2022-08-28T23:04:10.619Z,5.10
2022-08-28T23:09:13.655Z,5.05
2022-08-28T23:14:16.697Z,4.25
2022-08-28T23:19:19.540Z,4.38
2022-08-28T23:24:22.430Z,5.78
2022-08-28T23:29:25.416Z,4.70
2022-08-28T23:34:28.255Z,4.55
2022-08-28T23:39:31.090Z,5.05
2022-08-28T23:44:33.962Z,4.85
2022-08-28T23:49:42.758Z,4.15
2022-08-28T23:54:45.909Z,4.30
2022-08-28T23:59:49.576Z,5.28
